sensor_id;sensor_type;location;lat;lon;timestamp;pressure;altitude;pressure_sealevel;temperature;humidity
4814;BME280;15375;48.540;9.268;2022-12-07T00:01:22;97355.13;;;3.27;100.00
4814;BME280;15375;48.540;9.268;2022-12-07T00:03:49;97382.22;;;3.41;100.00
4814;BME280;15375;48.540;9.268;2022-12-07T00:06:16;97383.06;;;3.45;100.00
4814;BME280;15375;48.540;9.268;2022-12-07T00:08:42;97340.06;;;3.22;100.00
4814;BME280;15375;48.540;9.268;2022-12-07T00:11:10;97387.78;;;3.55;100.00
4814;BME280;15375;48.540;9.268;2022-12-07T00:13:37;97368.47;;;3.49;100.00
4814;BME280;15375;48.540;9.268;2022-12-07T00:16:08;97357.31;;;3.51;100.00
4814;BME280;15375;48.540;9.268;2022-12-07T00:18:34;97347.22;;;3.44;100.00
4814;BME280;15375;48.540;9.268;2022-12-07T00:21:02;97354.53;;;3.44;100.00
4814;BME280;15375;48.540;9.268;2022-12-07T00:23:28;97358.88;;;3.52;100.00
4814;BME280;15375;48.540;9.268;2022-12-07T00:25:53;97365.44;;;3.58;100.00
4814;BME280;15375;48.540;9.268;2022-12-07T00:28:19;97388.66;;;3.66;100.00
4814;BME280;15375;48.540;9.268;2022-12-07T00:30:44;97384.44;;;3.65;100.00
4814;BME280;15375;48.540;9.268;2022-12-07T00:33:09;97366.22;;;3.55;100.00
4814;BME280;15375;48.540;9.268;2022-12-07T00:35:35;97368.94;;;3.58;100.00
4814;BME280;15375;48.540;9.268;2022-12-07T00:38:00;97343.72;;;3.40;100.00
4814;BME280;15375;48.540;9.268;2022-12-07T00:40:25;97328.53;;;3.25;100.00
4814;BME280;15375;48.540;9.268;2022-12-07T00:42:51;97360.38;;;3.49;100.00
4814;BME280;15375;48.540;9.268;2022-12-07T00:45:16;97359.16;;;3.43;100.00
4814;BME280;15375;48.540;9.268;2022-12-07T00:47:41;97315.00;;;3.18;100.00
4814;BME280;15375;48.540;9.268;2022-12-07T00:50:07;97336.72;;;3.36;100.00
4814;BME280;15375;48.540;9.268;2022-12-07T00:52:32;97338.28;;;3.37;100.00
4814;BME280;15375;48.540;9.268;2022-12-07T00:54:58;97356.91;;;3.49;100.00
4814;BME280;15375;48.540;9.268;2022-12-07T00:57:23;97346.06;;;3.45;100.00
4814;BME280;15375;48.540;9.268;2022-12-07T00:59:49;97346.84;;;3.46;100.00
4814;BME280;15375;48.540;9.268;2022-12-07T01:02:14;97346.06;;;3.42;100.00
4814;BME280;15375;48.540;9.268;2022-12-07T01:04:39;97359.63;;;3.52;100.00
4814;BME280;15375;48.540;9.268;2022-12-07T01:07:08;97342.56;;;3.41;100.00
4814;BME280;15375;48.540;9.268;2022-12-07T01:09:34;97358.47;;;3.53;100.00
4814;BME280;15375;48.540;9.268;2022-12-07T01:11:59;97338.66;;;3.35;100.00
4814;BME280;15375;48.540;9.268;2022-12-07T01:14:25;97382.41;;;3.55;100.00
4814;BME280;15375;48.540;9.268;2022-12-07T01:16:50;97360.31;;;3.42;100.00
4814;BME280;15375;48.540;9.268;2022-12-07T01:19:16;97369.66;;;3.52;100.00
4814;BME280;15375;48.540;9.268;2022-12-07T01:21:41;97342.47;;;3.31;100.00
4814;BME280;15375;48.540;9.268;2022-12-07T01:24:10;97369.19;;;3.46;100.00
4814;BME280;15375;48.540;9.268;2022-12-07T01:26:35;97359.03;;;3.33;100.00
4814;BME280;15375;48.540;9.268;2022-12-07T01:29:01;97369.16;;;3.43;100.00
4814;BME280;15375;48.540;9.268;2022-12-07T01:31:27;97380.44;;;3.52;100.00
4814;BME280;15375;48.540;9.268;2022-12-07T01:33:55;97355.19;;;3.34;100.00
4814;BME280;15375;48.540;9.268;2022-12-07T01:36:27;97368.78;;;3.44;100.00
4814;BME280;15375;48.540;9.268;2022-12-07T01:38:58;97390.84;;;3.53;100.00
4814;BME280;15375;48.540;9.268;2022-12-07T01:41:26;97352.06;;;3.28;100.00
4814;BME280;15375;48.540;9.268;2022-12-07T01:44:08;97392.75;;;3.53;100.00
4814;BME280;15375;48.540;9.268;2022-12-07T01:46:34;97356.72;;;3.31;100.00
4814;BME280;15375;48.540;9.268;2022-12-07T01:49:00;97352.50;;;3.34;100.00
4814;BME280;15375;48.540;9.268;2022-12-07T01:51:26;97397.00;;;3.54;100.00
4814;BME280;15375;48.540;9.268;2022-12-07T01:53:53;97362.56;;;3.37;100.00
4814;BME280;15375;48.540;9.268;2022-12-07T01:56:21;97355.19;;;3.34;100.00
4814;BME280;15375;48.540;9.268;2022-12-07T01:58:49;97374.59;;;3.46;100.00
4814;BME280;15375;48.540;9.268;2022-12-07T02:01:16;97355.59;;;3.36;100.00
4814;BME280;15375;48.540;9.268;2022-12-07T02:03:43;97386.97;;;3.51;100.00
4814;BME280;15375;48.540;9.268;2022-12-07T02:06:12;97355.53;;;3.29;100.00
4814;BME280;15375;48.540;9.268;2022-12-07T02:08:41;97376.84;;;3.41;100.00
4814;BME280;15375;48.540;9.268;2022-12-07T02:11:08;97359.34;;;3.28;100.00
4814;BME280;15375;48.540;9.268;2022-12-07T02:13:36;97374.06;;;3.34;100.00
4814;BME280;15375;48.540;9.268;2022-12-07T02:27:17;97388.47;;;3.45;100.00
4814;BME280;15375;48.540;9.268;2022-12-07T02:29:49;97374.53;;;3.39;100.00
4814;BME280;15375;48.540;9.268;2022-12-07T02:43:09;97382.50;;;3.29;100.00
4814;BME280;15375;48.540;9.268;2022-12-07T02:45:39;97370.47;;;3.22;100.00
4814;BME280;15375;48.540;9.268;2022-12-07T02:48:07;97392.16;;;3.33;100.00
4814;BME280;15375;48.540;9.268;2022-12-07T02:50:34;97373.22;;;3.26;100.00
4814;BME280;15375;48.540;9.268;2022-12-07T02:53:00;97329.31;;;2.92;100.00
4814;BME280;15375;48.540;9.268;2022-12-07T02:55:37;97351.41;;;3.05;100.00
4814;BME280;15375;48.540;9.268;2022-12-07T03:00:44;97352.50;;;3.00;100.00
4814;BME280;15375;48.540;9.268;2022-12-07T03:03:15;97365.00;;;3.15;100.00
4814;BME280;15375;48.540;9.268;2022-12-07T03:08:45;97347.25;;;3.11;100.00
4814;BME280;15375;48.540;9.268;2022-12-07T03:11:21;97363.56;;;3.21;100.00
4814;BME280;15375;48.540;9.268;2022-12-07T03:14:15;97374.41;;;3.29;100.00
4814;BME280;15375;48.540;9.268;2022-12-07T03:16:53;97356.59;;;3.20;100.00
4814;BME280;15375;48.540;9.268;2022-12-07T03:19:22;97319.78;;;2.98;100.00
4814;BME280;15375;48.540;9.268;2022-12-07T03:21:54;97259.34;;;2.63;100.00
4814;BME280;15375;48.540;9.268;2022-12-07T03:24:23;97290.72;;;2.81;100.00
4814;BME280;15375;48.540;9.268;2022-12-07T03:27:00;97345.66;;;3.06;100.00
4814;BME280;15375;48.540;9.268;2022-12-07T03:29:31;97337.78;;;2.91;100.00
4814;BME280;15375;48.540;9.268;2022-12-07T03:32:03;97311.34;;;2.67;100.00
4814;BME280;15375;48.540;9.268;2022-12-07T03:34:52;97360.13;;;2.95;100.00
4814;BME280;15375;48.540;9.268;2022-12-07T03:40:32;97357.13;;;3.00;100.00
4814;BME280;15375;48.540;9.268;2022-12-07T03:43:00;97347.81;;;2.94;100.00
4814;BME280;15375;48.540;9.268;2022-12-07T03:45:43;97333.50;;;2.86;100.00
4814;BME280;15375;48.540;9.268;2022-12-07T03:48:28;97352.50;;;2.97;100.00
4814;BME280;15375;48.540;9.268;2022-12-07T03:51:10;97356.38;;;2.99;100.00
4814;BME280;15375;48.540;9.268;2022-12-07T03:53:56;97308.31;;;2.72;100.00
4814;BME280;15375;48.540;9.268;2022-12-07T03:56:25;97347.84;;;2.97;100.00
4814;BME280;15375;48.540;9.268;2022-12-07T03:58:52;97319.94;;;2.79;100.00
4814;BME280;15375;48.540;9.268;2022-12-07T04:01:18;97329.66;;;2.87;100.00
4814;BME280;15375;48.540;9.268;2022-12-07T04:03:44;97357.97;;;3.07;100.00
4814;BME280;15375;48.540;9.268;2022-12-07T04:06:09;97306.84;;;2.78;100.00
4814;BME280;15375;48.540;9.268;2022-12-07T04:08:35;97346.66;;;2.91;100.00
4814;BME280;15375;48.540;9.268;2022-12-07T04:11:01;97361.31;;;2.97;100.00
4814;BME280;15375;48.540;9.268;2022-12-07T04:13:26;97274.06;;;2.39;100.00
4814;BME280;15375;48.540;9.268;2022-12-07T04:15:51;97333.84;;;2.85;100.00
4814;BME280;15375;48.540;9.268;2022-12-07T04:18:17;97330.81;;;2.86;100.00
4814;BME280;15375;48.540;9.268;2022-12-07T04:20:42;97311.34;;;2.70;100.00
4814;BME280;15375;48.540;9.268;2022-12-07T04:23:08;97278.28;;;2.40;100.00
4814;BME280;15375;48.540;9.268;2022-12-07T04:25:33;97336.06;;;2.76;100.00
4814;BME280;15375;48.540;9.268;2022-12-07T04:27:58;97341.81;;;2.74;100.00
4814;BME280;15375;48.540;9.268;2022-12-07T04:30:24;97261.50;;;2.20;100.00
4814;BME280;15375;48.540;9.268;2022-12-07T04:32:49;97318.09;;;2.57;100.00
4814;BME280;15375;48.540;9.268;2022-12-07T04:35:14;97290.09;;;2.32;100.00
4814;BME280;15375;48.540;9.268;2022-12-07T04:37:40;97270.66;;;2.16;100.00
4814;BME280;15375;48.540;9.268;2022-12-07T04:40:08;97266.09;;;2.20;100.00
4814;BME280;15375;48.540;9.268;2022-12-07T04:42:36;97303.28;;;2.40;100.00
4814;BME280;15375;48.540;9.268;2022-12-07T04:45:02;97343.66;;;2.67;100.00
4814;BME280;15375;48.540;9.268;2022-12-07T04:47:27;97339.22;;;2.51;100.00
4814;BME280;15375;48.540;9.268;2022-12-07T04:49:53;97334.97;;;2.50;100.00
4814;BME280;15375;48.540;9.268;2022-12-07T04:52:18;97308.28;;;2.42;100.00
4814;BME280;15375;48.540;9.268;2022-12-07T04:54:43;97296.34;;;2.39;100.00
4814;BME280;15375;48.540;9.268;2022-12-07T04:57:09;97336.38;;;2.71;100.00
4814;BME280;15375;48.540;9.268;2022-12-07T04:59:34;97332.34;;;2.57;100.00
4814;BME280;15375;48.540;9.268;2022-12-07T05:01:59;97325.06;;;2.58;100.00
4814;BME280;15375;48.540;9.268;2022-12-07T05:04:25;97315.00;;;2.55;100.00
4814;BME280;15375;48.540;9.268;2022-12-07T05:06:50;97350.97;;;2.70;100.00
4814;BME280;15375;48.540;9.268;2022-12-07T05:09:15;97321.56;;;2.54;100.00
4814;BME280;15375;48.540;9.268;2022-12-07T05:11:41;97307.16;;;2.43;100.00
4814;BME280;15375;48.540;9.268;2022-12-07T05:14:16;97317.63;;;2.48;100.00
4814;BME280;15375;48.540;9.268;2022-12-07T05:16:42;97335.03;;;2.57;100.00
4814;BME280;15375;48.540;9.268;2022-12-07T05:19:08;97320.56;;;2.39;100.00
4814;BME280;15375;48.540;9.268;2022-12-07T05:21:35;97329.41;;;2.40;100.00
4814;BME280;15375;48.540;9.268;2022-12-07T05:24:00;97308.81;;;2.21;100.00
4814;BME280;15375;48.540;9.268;2022-12-07T05:26:26;97337.66;;;2.24;100.00
4814;BME280;15375;48.540;9.268;2022-12-07T05:28:53;97340.22;;;2.14;100.00
4814;BME280;15375;48.540;9.268;2022-12-07T05:31:18;97336.88;;;1.98;100.00
4814;BME280;15375;48.540;9.268;2022-12-07T05:33:44;97317.00;;;1.79;100.00
4814;BME280;15375;48.540;9.268;2022-12-07T05:36:09;97326.56;;;1.77;100.00
4814;BME280;15375;48.540;9.268;2022-12-07T05:38:35;97294.97;;;1.48;100.00
4814;BME280;15375;48.540;9.268;2022-12-07T05:41:04;97309.59;;;1.50;100.00
4814;BME280;15375;48.540;9.268;2022-12-07T05:43:31;97332.91;;;1.65;100.00
4814;BME280;15375;48.540;9.268;2022-12-07T05:45:57;97345.16;;;1.63;100.00
4814;BME280;15375;48.540;9.268;2022-12-07T05:48:23;97297.00;;;1.32;100.00
4814;BME280;15375;48.540;9.268;2022-12-07T05:50:49;97330.22;;;1.43;100.00
4814;BME280;15375;48.540;9.268;2022-12-07T05:53:14;97308.41;;;1.25;100.00
4814;BME280;15375;48.540;9.268;2022-12-07T05:55:40;97330.09;;;1.36;100.00
4814;BME280;15375;48.540;9.268;2022-12-07T05:58:05;97333.91;;;1.35;100.00
4814;BME280;15375;48.540;9.268;2022-12-07T06:00:49;97301.16;;;1.06;100.00
4814;BME280;15375;48.540;9.268;2022-12-07T06:03:14;97313.94;;;1.13;100.00
4814;BME280;15375;48.540;9.268;2022-12-07T06:05:40;97314.56;;;1.06;100.00
4814;BME280;15375;48.540;9.268;2022-12-07T06:08:05;97303.00;;;1.02;100.00
4814;BME280;15375;48.540;9.268;2022-12-07T06:10:30;97306.94;;;1.08;100.00
4814;BME280;15375;48.540;9.268;2022-12-07T06:12:56;97282.09;;;0.92;100.00
4814;BME280;15375;48.540;9.268;2022-12-07T06:15:21;97297.25;;;1.04;100.00
4814;BME280;15375;48.540;9.268;2022-12-07T06:17:48;97327.00;;;1.14;100.00
4814;BME280;15375;48.540;9.268;2022-12-07T06:20:13;97233.16;;;0.60;100.00
4814;BME280;15375;48.540;9.268;2022-12-07T06:22:39;97299.66;;;1.09;100.00
4814;BME280;15375;48.540;9.268;2022-12-07T06:25:04;97277.56;;;0.96;100.00
4814;BME280;15375;48.540;9.268;2022-12-07T06:27:32;97286.09;;;1.02;100.00
4814;BME280;15375;48.540;9.268;2022-12-07T06:29:58;97307.38;;;1.10;100.00
4814;BME280;15375;48.540;9.268;2022-12-07T06:32:24;97311.09;;;1.06;100.00
4814;BME280;15375;48.540;9.268;2022-12-07T06:34:49;97333.56;;;1.17;100.00
4814;BME280;15375;48.540;9.268;2022-12-07T06:37:14;97324.41;;;0.99;100.00
4814;BME280;15375;48.540;9.268;2022-12-07T06:39:40;97289.97;;;0.62;100.00
4814;BME280;15375;48.540;9.268;2022-12-07T06:42:05;97309.72;;;0.74;100.00
4814;BME280;15375;48.540;9.268;2022-12-07T06:44:31;97336.50;;;0.89;100.00
4814;BME280;15375;48.540;9.268;2022-12-07T06:46:56;97315.09;;;0.74;100.00
4814;BME280;15375;48.540;9.268;2022-12-07T06:49:21;97320.25;;;0.82;100.00
4814;BME280;15375;48.540;9.268;2022-12-07T06:51:49;97324.44;;;0.80;100.00
4814;BME280;15375;48.540;9.268;2022-12-07T06:54:17;97186.16;;;-0.10;100.00
4814;BME280;15375;48.540;9.268;2022-12-07T06:56:43;97336.88;;;0.88;100.00
4814;BME280;15375;48.540;9.268;2022-12-07T06:59:08;97344.63;;;0.93;100.00
4814;BME280;15375;48.540;9.268;2022-12-07T07:01:35;97310.31;;;0.83;100.00
4814;BME280;15375;48.540;9.268;2022-12-07T07:04:01;97323.50;;;0.91;100.00
4814;BME280;15375;48.540;9.268;2022-12-07T07:06:26;97335.16;;;0.99;100.00
4814;BME280;15375;48.540;9.268;2022-12-07T07:08:52;97313.63;;;0.95;100.00
4814;BME280;15375;48.540;9.268;2022-12-07T07:11:17;97311.28;;;0.94;100.00
4814;BME280;15375;48.540;9.268;2022-12-07T07:13:44;97330.97;;;1.01;100.00
4814;BME280;15375;48.540;9.268;2022-12-07T07:16:09;97338.13;;;0.94;100.00
4814;BME280;15375;48.540;9.268;2022-12-07T07:18:36;97357.50;;;1.03;100.00
4814;BME280;15375;48.540;9.268;2022-12-07T07:21:01;97343.78;;;0.89;100.00
4814;BME280;15375;48.540;9.268;2022-12-07T07:23:30;97274.72;;;0.47;100.00
4814;BME280;15375;48.540;9.268;2022-12-07T07:25:56;97324.94;;;0.85;100.00
4814;BME280;15375;48.540;9.268;2022-12-07T07:28:22;97288.13;;;0.67;100.00
4814;BME280;15375;48.540;9.268;2022-12-07T07:30:47;97335.09;;;0.95;100.00
4814;BME280;15375;48.540;9.268;2022-12-07T07:33:13;97315.19;;;0.77;100.00
4814;BME280;15375;48.540;9.268;2022-12-07T07:35:38;97321.31;;;0.78;100.00
4814;BME280;15375;48.540;9.268;2022-12-07T07:38:04;97365.97;;;1.05;100.00
4814;BME280;15375;48.540;9.268;2022-12-07T07:40:30;97301.03;;;0.61;100.00
4814;BME280;15375;48.540;9.268;2022-12-07T07:42:56;97367.38;;;0.99;100.00
4814;BME280;15375;48.540;9.268;2022-12-07T07:45:23;97360.81;;;0.96;100.00
4814;BME280;15375;48.540;9.268;2022-12-07T07:47:49;97293.34;;;0.59;100.00
4814;BME280;15375;48.540;9.268;2022-12-07T07:50:15;97333.94;;;0.96;100.00
4814;BME280;15375;48.540;9.268;2022-12-07T07:52:41;97319.44;;;1.01;100.00
4814;BME280;15375;48.540;9.268;2022-12-07T07:55:07;97342.38;;;1.37;100.00
4814;BME280;15375;48.540;9.268;2022-12-07T07:57:34;97378.59;;;1.65;100.00
4814;BME280;15375;48.540;9.268;2022-12-07T08:00:00;97373.75;;;1.74;100.00
4814;BME280;15375;48.540;9.268;2022-12-07T08:02:25;97341.97;;;1.57;100.00
4814;BME280;15375;48.540;9.268;2022-12-07T08:04:50;97348.66;;;1.67;100.00
4814;BME280;15375;48.540;9.268;2022-12-07T08:07:16;97367.00;;;1.84;100.00
4814;BME280;15375;48.540;9.268;2022-12-07T08:09:41;97360.88;;;1.83;100.00
4814;BME280;15375;48.540;9.268;2022-12-07T08:12:07;97348.03;;;1.73;100.00
4814;BME280;15375;48.540;9.268;2022-12-07T08:14:34;97405.13;;;2.12;100.00
4814;BME280;15375;48.540;9.268;2022-12-07T08:16:59;97377.03;;;1.87;100.00
4814;BME280;15375;48.540;9.268;2022-12-07T08:19:25;97401.66;;;2.12;100.00
4814;BME280;15375;48.540;9.268;2022-12-07T08:21:51;97370.34;;;2.00;100.00
4814;BME280;15375;48.540;9.268;2022-12-07T08:24:16;97389.53;;;2.21;100.00
4814;BME280;15375;48.540;9.268;2022-12-07T08:26:42;97404.06;;;2.43;100.00
4814;BME280;15375;48.540;9.268;2022-12-07T08:29:08;97387.75;;;2.32;100.00
4814;BME280;15375;48.540;9.268;2022-12-07T08:31:33;97393.00;;;2.48;100.00
4814;BME280;15375;48.540;9.268;2022-12-07T08:33:59;97389.03;;;2.42;100.00
4814;BME280;15375;48.540;9.268;2022-12-07T08:36:24;97336.56;;;2.03;100.00
4814;BME280;15375;48.540;9.268;2022-12-07T08:38:50;97365.13;;;2.37;100.00
4814;BME280;15375;48.540;9.268;2022-12-07T08:41:16;97362.75;;;2.32;100.00
4814;BME280;15375;48.540;9.268;2022-12-07T08:43:42;97353.84;;;2.28;100.00
4814;BME280;15375;48.540;9.268;2022-12-07T08:46:28;97411.13;;;2.51;100.00
4814;BME280;15375;48.540;9.268;2022-12-07T08:49:15;97416.22;;;2.59;100.00
4814;BME280;15375;48.540;9.268;2022-12-07T08:51:42;97407.22;;;2.48;100.00
4814;BME280;15375;48.540;9.268;2022-12-07T08:54:14;97359.97;;;2.25;100.00
4814;BME280;15375;48.540;9.268;2022-12-07T08:56:41;97383.97;;;2.37;100.00
4814;BME280;15375;48.540;9.268;2022-12-07T08:59:07;97371.88;;;2.50;100.00
4814;BME280;15375;48.540;9.268;2022-12-07T09:01:33;97389.53;;;2.77;100.00
4814;BME280;15375;48.540;9.268;2022-12-07T09:03:59;97335.03;;;2.57;100.00
4814;BME280;15375;48.540;9.268;2022-12-07T09:06:24;97375.16;;;2.96;100.00
4814;BME280;15375;48.540;9.268;2022-12-07T09:08:53;97324.81;;;2.70;100.00
4814;BME280;15375;48.540;9.268;2022-12-07T09:11:20;97369.47;;;3.01;100.00
4814;BME280;15375;48.540;9.268;2022-12-07T09:13:45;97377.16;;;3.02;100.00
4814;BME280;15375;48.540;9.268;2022-12-07T09:16:13;97388.22;;;2.94;100.00
4814;BME280;15375;48.540;9.268;2022-12-07T09:18:39;97401.59;;;3.16;100.00
4814;BME280;15375;48.540;9.268;2022-12-07T09:21:04;97413.72;;;3.33;100.00
4814;BME280;15375;48.540;9.268;2022-12-07T09:23:30;97373.59;;;3.25;100.00
4814;BME280;15375;48.540;9.268;2022-12-07T09:25:59;97388.03;;;3.43;100.00
4814;BME280;15375;48.540;9.268;2022-12-07T09:28:28;97391.16;;;3.45;100.00
4814;BME280;15375;48.540;9.268;2022-12-07T09:30:55;97369.09;;;3.36;100.00
4814;BME280;15375;48.540;9.268;2022-12-07T09:33:20;97370.75;;;3.47;100.00
4814;BME280;15375;48.540;9.268;2022-12-07T09:35:47;97408.81;;;3.79;100.00
4814;BME280;15375;48.540;9.268;2022-12-07T09:38:12;97387.81;;;3.58;100.00
4814;BME280;15375;48.540;9.268;2022-12-07T09:40:38;97400.44;;;3.51;100.00
4814;BME280;15375;48.540;9.268;2022-12-07T09:43:04;97395.38;;;3.46;100.00
4814;BME280;15375;48.540;9.268;2022-12-07T09:45:35;97367.16;;;3.36;100.00
4814;BME280;15375;48.540;9.268;2022-12-07T09:48:04;97357.97;;;3.41;100.00
4814;BME280;15375;48.540;9.268;2022-12-07T09:50:30;97386.03;;;3.73;100.00
4814;BME280;15375;48.540;9.268;2022-12-07T09:53:07;97356.44;;;3.80;100.00
4814;BME280;15375;48.540;9.268;2022-12-07T09:55:33;97346.44;;;3.84;100.00
4814;BME280;15375;48.540;9.268;2022-12-07T09:57:59;97320.25;;;3.88;100.00
4814;BME280;15375;48.540;9.268;2022-12-07T10:00:25;97379.19;;;4.30;100.00
4814;BME280;15375;48.540;9.268;2022-12-07T10:02:57;97367.22;;;4.31;100.00
4814;BME280;15375;48.540;9.268;2022-12-07T10:05:36;97371.22;;;4.51;100.00
4814;BME280;15375;48.540;9.268;2022-12-07T10:08:03;97363.19;;;4.62;100.00
4814;BME280;15375;48.540;9.268;2022-12-07T10:10:35;97360.84;;;4.57;100.00
4814;BME280;15375;48.540;9.268;2022-12-07T10:13:17;97354.31;;;4.58;100.00
4814;BME280;15375;48.540;9.268;2022-12-07T10:15:45;97357.75;;;4.55;100.00
4814;BME280;15375;48.540;9.268;2022-12-07T10:18:21;97352.34;;;4.55;100.00
4814;BME280;15375;48.540;9.268;2022-12-07T10:21:20;97340.44;;;4.66;100.00
4814;BME280;15375;48.540;9.268;2022-12-07T10:24:14;97328.81;;;4.59;100.00
4814;BME280;15375;48.540;9.268;2022-12-07T10:27:10;97298.13;;;4.19;100.00
4814;BME280;15375;48.540;9.268;2022-12-07T10:29:39;97295.44;;;4.19;100.00
4814;BME280;15375;48.540;9.268;2022-12-07T10:34:41;97283.50;;;4.20;100.00
4814;BME280;15375;48.540;9.268;2022-12-07T10:39:48;97331.16;;;4.60;95.35
4814;BME280;15375;48.540;9.268;2022-12-07T10:44:41;97267.78;;;4.43;97.00
4814;BME280;15375;48.540;9.268;2022-12-07T10:55:20;97322.13;;;5.18;95.37
4814;BME280;15375;48.540;9.268;2022-12-07T10:58:03;97293.09;;;4.90;95.42
4814;BME280;15375;48.540;9.268;2022-12-07T11:03:29;97285.41;;;5.02;97.92
4814;BME280;15375;48.540;9.268;2022-12-07T11:11:14;97274.56;;;4.99;97.19
4814;BME280;15375;48.540;9.268;2022-12-07T11:16:56;97307.44;;;5.15;97.70
4814;BME280;15375;48.540;9.268;2022-12-07T11:22:24;97287.72;;;5.07;95.61
4814;BME280;15375;48.540;9.268;2022-12-07T11:33:36;97276.13;;;5.07;96.77
4814;BME280;15375;48.540;9.268;2022-12-07T11:38:53;97239.44;;;4.99;92.58
4814;BME280;15375;48.540;9.268;2022-12-07T11:41:24;97266.13;;;5.18;93.33
4814;BME280;15375;48.540;9.268;2022-12-07T11:46:49;97245.66;;;5.10;94.83
4814;BME280;15375;48.540;9.268;2022-12-07T11:52:51;97274.28;;;5.39;96.03
4814;BME280;15375;48.540;9.268;2022-12-07T11:55:27;97265.00;;;5.40;94.57
4814;BME280;15375;48.540;9.268;2022-12-07T11:58:08;97252.91;;;4.85;93.45
4814;BME280;15375;48.540;9.268;2022-12-07T12:00:39;97213.53;;;4.80;95.00
4814;BME280;15375;48.540;9.268;2022-12-07T12:03:14;97235.94;;;4.91;92.76
4814;BME280;15375;48.540;9.268;2022-12-07T12:05:41;97201.91;;;4.69;92.98
4814;BME280;15375;48.540;9.268;2022-12-07T12:08:19;97221.31;;;4.96;93.31
4814;BME280;15375;48.540;9.268;2022-12-07T12:11:08;97208.94;;;4.98;92.33
4814;BME280;15375;48.540;9.268;2022-12-07T12:22:07;97205.88;;;5.25;92.05
4814;BME280;15375;48.540;9.268;2022-12-07T12:24:37;97194.25;;;4.89;92.29
4814;BME280;15375;48.540;9.268;2022-12-07T12:27:08;97231.75;;;5.29;94.58
4814;BME280;15375;48.540;9.268;2022-12-07T12:29:39;97215.91;;;5.24;96.23
4814;BME280;15375;48.540;9.268;2022-12-07T12:32:21;97194.28;;;5.24;95.83
4814;BME280;15375;48.540;9.268;2022-12-07T12:42:50;97216.72;;;5.60;93.75
4814;BME280;15375;48.540;9.268;2022-12-07T12:47:59;97225.97;;;5.62;93.83
4814;BME280;15375;48.540;9.268;2022-12-07T12:50:28;97224.44;;;5.44;94.20
4814;BME280;15375;48.540;9.268;2022-12-07T12:53:20;97186.56;;;5.12;95.76
4814;BME280;15375;48.540;9.268;2022-12-07T12:58:36;97229.81;;;5.26;96.59
4814;BME280;15375;48.540;9.268;2022-12-07T13:03:55;97211.69;;;5.30;94.21
4814;BME280;15375;48.540;9.268;2022-12-07T13:08:50;97203.56;;;5.30;94.54
4814;BME280;15375;48.540;9.268;2022-12-07T13:11:19;97182.31;;;5.14;96.18
4814;BME280;15375;48.540;9.268;2022-12-07T13:13:45;97210.53;;;5.35;95.57
4814;BME280;15375;48.540;9.268;2022-12-07T13:18:37;97202.00;;;5.36;97.08
4814;BME280;15375;48.540;9.268;2022-12-07T13:23:38;97193.53;;;5.45;99.25
4814;BME280;15375;48.540;9.268;2022-12-07T13:29:16;97191.97;;;5.26;94.44
4814;BME280;15375;48.540;9.268;2022-12-07T13:34:40;97169.56;;;5.04;99.01
4814;BME280;15375;48.540;9.268;2022-12-07T13:37:18;97173.44;;;5.07;99.38
4814;BME280;15375;48.540;9.268;2022-12-07T13:39:51;97165.28;;;4.96;98.99
4814;BME280;15375;48.540;9.268;2022-12-07T13:42:27;97186.94;;;5.00;96.25
4814;BME280;15375;48.540;9.268;2022-12-07T13:44:53;97172.28;;;5.01;96.91
4814;BME280;15375;48.540;9.268;2022-12-07T13:47:35;97185.03;;;5.18;97.97
4814;BME280;15375;48.540;9.268;2022-12-07T13:50:02;97185.00;;;5.14;99.92
4814;BME280;15375;48.540;9.268;2022-12-07T13:52:45;97153.34;;;5.04;98.53
4814;BME280;15375;48.540;9.268;2022-12-07T13:55:16;97156.06;;;5.08;97.44
4814;BME280;15375;48.540;9.268;2022-12-07T13:57:47;97138.66;;;4.95;97.62
4814;BME280;15375;48.540;9.268;2022-12-07T14:00:20;97160.66;;;5.04;98.16
4814;BME280;15375;48.540;9.268;2022-12-07T14:03:01;97177.31;;;5.20;97.95
4814;BME280;15375;48.540;9.268;2022-12-07T14:12:54;97163.38;;;4.97;97.61
4814;BME280;15375;48.540;9.268;2022-12-07T14:15:27;97148.31;;;4.85;97.41
4814;BME280;15375;48.540;9.268;2022-12-07T14:17:54;97168.00;;;4.96;98.90
4814;BME280;15375;48.540;9.268;2022-12-07T14:20:38;97171.91;;;5.06;99.65
4814;BME280;15375;48.540;9.268;2022-12-07T14:23:06;97168.41;;;5.02;100.00
4814;BME280;15375;48.540;9.268;2022-12-07T14:25:47;97172.66;;;5.03;100.00
4814;BME280;15375;48.540;9.268;2022-12-07T14:28:44;97176.88;;;5.04;100.00
4814;BME280;15375;48.540;9.268;2022-12-07T14:31:17;97188.06;;;4.99;100.00
4814;BME280;15375;48.540;9.268;2022-12-07T14:33:43;97171.47;;;4.97;100.00
4814;BME280;15375;48.540;9.268;2022-12-07T14:36:10;97159.88;;;4.79;100.00
4814;BME280;15375;48.540;9.268;2022-12-07T14:38:36;97148.66;;;4.70;100.00
4814;BME280;15375;48.540;9.268;2022-12-07T14:41:03;97164.88;;;4.77;100.00
4814;BME280;15375;48.540;9.268;2022-12-07T14:43:48;97154.47;;;4.68;100.00
4814;BME280;15375;48.540;9.268;2022-12-07T14:46:13;97174.94;;;4.80;100.00
4814;BME280;15375;48.540;9.268;2022-12-07T14:48:39;97182.25;;;4.79;100.00
4814;BME280;15375;48.540;9.268;2022-12-07T14:51:04;97142.88;;;4.61;100.00
4814;BME280;15375;48.540;9.268;2022-12-07T14:53:35;97122.38;;;4.42;100.00
4814;BME280;15375;48.540;9.268;2022-12-07T14:56:02;97161.41;;;4.69;100.00
4814;BME280;15375;48.540;9.268;2022-12-07T14:58:30;97163.72;;;4.71;100.00
4814;BME280;15375;48.540;9.268;2022-12-07T15:00:56;97162.53;;;4.65;100.00
4814;BME280;15375;48.540;9.268;2022-12-07T15:03:21;97155.59;;;4.60;100.00
4814;BME280;15375;48.540;9.268;2022-12-07T15:05:47;97173.38;;;4.72;100.00
4814;BME280;15375;48.540;9.268;2022-12-07T15:08:13;97126.22;;;4.37;100.00
4814;BME280;15375;48.540;9.268;2022-12-07T15:10:39;97182.97;;;4.59;100.00
4814;BME280;15375;48.540;9.268;2022-12-07T15:13:05;97174.84;;;4.48;100.00
4814;BME280;15375;48.540;9.268;2022-12-07T15:15:52;97184.88;;;4.47;100.00
4814;BME280;15375;48.540;9.268;2022-12-07T15:18:18;97128.03;;;4.05;100.00
4814;BME280;15375;48.540;9.268;2022-12-07T15:20:45;97180.22;;;4.44;100.00
4814;BME280;15375;48.540;9.268;2022-12-07T15:23:12;97183.72;;;4.48;100.00
4814;BME280;15375;48.540;9.268;2022-12-07T15:25:41;97167.09;;;4.39;100.00